createdAt,value
2023-04-23T00:01:06.471Z,14.22
2023-04-23T00:03:34.618Z,14.21
2023-04-23T00:06:05.634Z,14.31
2023-04-23T00:08:32.911Z,14.31
2023-04-23T00:11:00.210Z,14.26
2023-04-23T00:13:27.915Z,14.22
2023-04-23T00:15:55.014Z,14.29
2023-04-23T00:18:21.462Z,14.26
2023-04-23T00:20:48.150Z,14.17
2023-04-23T00:23:14.580Z,14.15
2023-04-23T00:25:41.043Z,14.12
2023-04-23T00:28:07.509Z,14.10
2023-04-23T00:30:33.924Z,14.12
2023-04-23T00:33:00.644Z,14.04
2023-04-23T00:35:27.577Z,13.89
2023-04-23T00:37:53.938Z,13.71
2023-04-23T00:40:21.186Z,13.62
2023-04-23T00:42:48.774Z,13.36
2023-04-23T00:45:16.036Z,13.35
2023-04-23T00:47:43.360Z,13.33
2023-04-23T00:50:10.408Z,13.25
2023-04-23T00:52:39.080Z,13.12
2023-04-23T00:55:06.059Z,13.04
2023-04-23T00:57:33.288Z,13.03
2023-04-23T01:00:00.319Z,12.89
2023-04-23T01:02:30.930Z,12.84
2023-04-23T01:04:59.751Z,12.93
2023-04-23T01:07:27.083Z,12.93
2023-04-23T01:09:54.405Z,12.78
2023-04-23T01:12:22.605Z,12.68
2023-04-23T01:14:49.167Z,12.72
2023-04-23T01:17:16.308Z,12.64
2023-04-23T01:19:42.768Z,12.73
2023-04-23T01:22:11.711Z,12.67
2023-04-23T01:24:39.623Z,12.57
2023-04-23T01:27:07.248Z,12.63
2023-04-23T01:29:34.780Z,12.60
2023-04-23T01:32:02.820Z,12.71
2023-04-23T01:34:30.926Z,12.55
2023-04-23T01:36:58.979Z,12.57
2023-04-23T01:39:26.082Z,12.54
2023-04-23T01:41:53.541Z,12.48
2023-04-23T01:44:20.018Z,12.51
2023-04-23T01:46:47.322Z,12.48
2023-04-23T01:49:14.457Z,12.50
2023-04-23T01:51:43.106Z,12.51
2023-04-23T01:54:09.539Z,12.57
2023-04-23T01:56:36.389Z,12.51
2023-04-23T01:59:02.904Z,12.41
2023-04-23T02:01:46.689Z,12.41
2023-04-23T02:04:14.990Z,12.40
2023-04-23T02:06:43.739Z,12.32
2023-04-23T02:09:10.554Z,12.33
2023-04-23T02:11:37.027Z,12.23
2023-04-23T02:14:04.393Z,12.20
2023-04-23T02:16:31.331Z,12.09
2023-04-23T02:18:57.821Z,12.09
2023-04-23T02:21:27.616Z,12.08
2023-04-23T02:23:54.307Z,12.07
2023-04-23T02:26:22.664Z,12.15
2023-04-23T02:28:49.347Z,12.11
2023-04-23T02:31:16.560Z,12.19
2023-04-23T02:33:43.308Z,12.07
2023-04-23T02:36:12.455Z,12.06
2023-04-23T02:38:42.185Z,12.09
2023-04-23T02:41:08.676Z,12.08
2023-04-23T02:43:36.040Z,11.98
2023-04-23T02:46:08.413Z,11.76
2023-04-23T02:48:38.854Z,11.80
2023-04-23T02:51:06.475Z,11.92
2023-04-23T02:53:33.123Z,11.81
2023-04-23T02:55:59.720Z,11.80
2023-04-23T02:58:26.812Z,11.77
2023-04-23T03:00:56.031Z,11.71
2023-04-23T03:03:26.627Z,11.65
2023-04-23T03:05:54.090Z,11.59
2023-04-23T03:08:20.695Z,11.54
2023-04-23T03:10:48.079Z,11.50
2023-04-23T03:13:14.801Z,11.62
2023-04-23T03:15:41.700Z,11.59
2023-04-23T03:18:08.368Z,11.50
2023-04-23T03:20:36.074Z,11.50
2023-04-23T03:23:03.528Z,11.31
2023-04-23T03:25:30.375Z,11.36
2023-04-23T03:27:57.101Z,11.26
2023-04-23T03:30:23.850Z,11.22
2023-04-23T03:32:50.884Z,11.26
2023-04-23T03:35:17.725Z,11.25
2023-04-23T03:37:47.320Z,11.19
2023-04-23T03:40:14.532Z,11.11
2023-04-23T03:42:43.100Z,11.15
2023-04-23T03:45:16.881Z,11.08
2023-04-23T03:47:44.381Z,11.09
2023-04-23T03:50:13.150Z,11.13
2023-04-23T03:52:41.430Z,10.96
2023-04-23T03:55:14.415Z,10.93
2023-04-23T03:57:45.030Z,10.94
2023-04-23T04:00:20.648Z,10.99
2023-04-23T04:02:47.399Z,10.90
2023-04-23T04:05:14.012Z,10.85
2023-04-23T04:07:41.120Z,10.83
2023-04-23T04:10:08.067Z,10.70
2023-04-23T04:12:34.542Z,10.78
2023-04-23T04:15:02.898Z,10.69
2023-04-23T04:17:29.282Z,10.79
2023-04-23T04:19:55.679Z,10.67
2023-04-23T04:22:22.552Z,10.81
2023-04-23T04:24:52.140Z,10.66
2023-04-23T04:27:18.674Z,10.68
2023-04-23T04:29:45.126Z,10.46
2023-04-23T04:32:11.524Z,10.41
2023-04-23T04:34:38.529Z,10.46
2023-04-23T04:37:05.285Z,10.42
2023-04-23T04:39:31.716Z,10.46
2023-04-23T04:41:59.829Z,10.40
2023-04-23T04:44:26.489Z,10.27
2023-04-23T04:46:53.770Z,10.20
2023-04-23T04:49:21.787Z,10.23
2023-04-23T04:51:48.432Z,10.27
2023-04-23T04:54:14.848Z,10.24
2023-04-23T04:56:41.259Z,10.32
2023-04-23T04:59:07.682Z,10.37
2023-04-23T05:01:34.227Z,10.41
2023-04-23T05:04:01.004Z,10.42
2023-04-23T05:06:28.827Z,10.35
2023-04-23T05:08:55.294Z,10.33
2023-04-23T05:11:21.782Z,10.28
2023-04-23T05:13:48.894Z,10.32
2023-04-23T05:16:15.690Z,10.37
2023-04-23T05:18:42.286Z,10.32
2023-04-23T05:21:08.951Z,10.31
2023-04-23T05:23:36.500Z,10.29
2023-04-23T05:26:03.601Z,10.27
2023-04-23T05:28:31.016Z,10.30
2023-04-23T05:30:58.297Z,10.27
2023-04-23T05:33:30.570Z,10.36
2023-04-23T05:35:59.700Z,10.32
2023-04-23T05:38:26.439Z,10.37
2023-04-23T05:40:52.941Z,10.29
2023-04-23T05:43:19.371Z,10.27
2023-04-23T05:45:46.129Z,10.34
2023-04-23T05:48:12.696Z,10.32
2023-04-23T05:50:39.234Z,10.31
2023-04-23T05:53:05.695Z,10.33
2023-04-23T05:55:32.115Z,10.49
2023-04-23T05:57:58.586Z,10.48
2023-04-23T06:00:25.307Z,10.42
2023-04-23T06:02:51.934Z,10.38
2023-04-23T06:05:19.397Z,10.51
2023-04-23T06:07:46.324Z,10.50
2023-04-23T06:10:12.873Z,10.54
2023-04-23T06:12:39.875Z,10.65
2023-04-23T06:15:10.174Z,10.73
2023-04-23T06:17:37.314Z,10.75
2023-04-23T06:20:05.052Z,10.84
2023-04-23T06:22:32.522Z,10.77
2023-04-23T06:24:59.329Z,10.80
2023-04-23T06:27:26.994Z,10.70
2023-04-23T06:29:56.793Z,10.85
2023-04-23T06:32:23.473Z,10.97
2023-04-23T06:35:00.247Z,11.02
2023-04-23T06:37:29.747Z,11.17
2023-04-23T06:39:56.779Z,11.34
2023-04-23T06:42:23.463Z,11.45
2023-04-23T06:45:07.010Z,11.38
2023-04-23T06:47:33.496Z,11.39
2023-04-23T06:50:00.188Z,11.44
2023-04-23T06:52:27.608Z,11.39
2023-04-23T06:54:54.108Z,11.39
2023-04-23T06:57:21.787Z,11.32
2023-04-23T06:59:48.454Z,11.28
2023-04-23T07:02:15.970Z,11.26
2023-04-23T07:04:42.798Z,11.35
2023-04-23T07:07:09.527Z,11.49
2023-04-23T07:09:35.966Z,11.69
2023-04-23T07:12:03.308Z,11.78
2023-04-23T07:14:29.762Z,11.66
2023-04-23T07:16:56.373Z,11.81
2023-04-23T07:19:22.857Z,11.79
2023-04-23T07:21:49.291Z,11.84
2023-04-23T07:24:16.604Z,11.92
2023-04-23T07:26:43.010Z,12.14
2023-04-23T07:29:11.246Z,12.15
2023-04-23T07:31:39.433Z,12.26
2023-04-23T07:34:06.537Z,12.36
2023-04-23T07:36:33.531Z,12.48
2023-04-23T07:39:00.012Z,12.53
2023-04-23T07:41:26.727Z,12.64
2023-04-23T07:43:53.402Z,12.73
2023-04-23T07:46:20.095Z,12.86
2023-04-23T07:48:46.555Z,12.82
2023-04-23T07:51:12.930Z,12.76
2023-04-23T07:53:39.374Z,12.92
2023-04-23T07:56:05.983Z,12.98
2023-04-23T07:58:33.235Z,12.95
2023-04-23T08:00:59.668Z,12.92
2023-04-23T08:03:26.564Z,12.97
2023-04-23T08:05:53.128Z,13.08
2023-04-23T08:08:19.551Z,13.41
2023-04-23T08:10:46.455Z,13.39
2023-04-23T08:13:12.883Z,13.59
2023-04-23T08:15:39.375Z,13.74
2023-04-23T08:18:06.272Z,13.91
2023-04-23T08:20:32.791Z,14.01
2023-04-23T08:22:59.429Z,13.97
2023-04-23T08:25:26.051Z,13.86
2023-04-23T08:27:52.764Z,13.98
2023-04-23T08:30:19.407Z,14.05
2023-04-23T08:32:49.949Z,14.04
2023-04-23T08:35:16.540Z,14.29
2023-04-23T08:37:42.956Z,14.56
2023-04-23T08:40:09.991Z,14.62
2023-04-23T08:42:38.492Z,14.77
2023-04-23T08:45:05.985Z,14.90
2023-04-23T08:47:32.693Z,15.16
2023-04-23T08:49:59.577Z,15.37
2023-04-23T08:52:29.363Z,15.45
2023-04-23T08:55:01.079Z,15.54
2023-04-23T08:57:27.966Z,15.47
2023-04-23T08:59:55.428Z,15.31
2023-04-23T09:02:23.182Z,15.57
2023-04-23T09:04:51.861Z,15.84
2023-04-23T09:07:19.324Z,15.92
2023-04-23T09:09:46.263Z,15.88
2023-04-23T09:12:12.764Z,15.99
2023-04-23T09:14:39.327Z,16.21
2023-04-23T09:17:06.220Z,15.91
2023-04-23T09:19:32.718Z,15.76
2023-04-23T09:22:01.955Z,16.05
2023-04-23T09:24:28.418Z,16.33
2023-04-23T09:26:55.112Z,16.49
2023-04-23T09:29:23.843Z,16.83
2023-04-23T09:31:52.580Z,16.97
2023-04-23T09:34:20.593Z,17.20
2023-04-23T09:36:50.561Z,17.29
2023-04-23T09:39:23.175Z,17.52
2023-04-23T09:41:52.838Z,17.50
2023-04-23T09:44:22.913Z,17.14
2023-04-23T09:46:49.944Z,17.39
2023-04-23T09:49:16.571Z,17.70
2023-04-23T09:51:48.552Z,17.80
2023-04-23T09:54:23.680Z,18.05
2023-04-23T09:56:53.788Z,17.83
2023-04-23T09:59:32.054Z,17.87
2023-04-23T10:02:07.749Z,17.93
2023-04-23T10:04:35.479Z,17.42
2023-04-23T10:07:17.931Z,17.74
2023-04-23T10:09:47.173Z,18.20
2023-04-23T10:14:46.916Z,18.19
2023-04-23T10:17:13.856Z,18.46
2023-04-23T10:19:43.374Z,18.40
2023-04-23T10:24:47.176Z,18.40
2023-04-23T10:27:28.420Z,18.28
2023-04-23T10:29:57.395Z,18.45
2023-04-23T10:32:24.330Z,18.53
2023-04-23T10:34:52.046Z,18.35
2023-04-23T10:37:21.934Z,18.25
2023-04-23T10:39:53.815Z,17.96
2023-04-23T10:42:21.675Z,18.10
2023-04-23T10:47:23.233Z,18.19
2023-04-23T10:49:49.794Z,18.10
2023-04-23T10:52:21.716Z,18.50
2023-04-23T10:54:57.883Z,18.89
2023-04-23T10:57:24.382Z,19.09
2023-04-23T10:59:55.930Z,18.79
2023-04-23T11:02:26.150Z,18.47
2023-04-23T11:04:57.707Z,18.20
2023-04-23T11:07:32.456Z,18.49
2023-04-23T11:10:01.029Z,18.51
2023-04-23T11:12:29.730Z,18.50
2023-04-23T11:14:57.059Z,18.25
2023-04-23T11:17:24.624Z,17.92
2023-04-23T11:20:14.840Z,17.72
2023-04-23T11:22:46.095Z,17.63
2023-04-23T11:25:14.970Z,17.54
2023-04-23T11:27:43.337Z,17.43
2023-04-23T11:30:18.163Z,17.48
2023-04-23T11:32:48.978Z,17.44
2023-04-23T11:35:18.823Z,17.48
2023-04-23T11:37:48.160Z,17.63
2023-04-23T11:40:19.131Z,17.94
2023-04-23T11:42:54.581Z,18.23
2023-04-23T11:45:23.438Z,18.32
2023-04-23T11:47:58.224Z,18.54
2023-04-23T11:50:30.471Z,18.62
2023-04-23T11:52:57.326Z,18.81
2023-04-23T11:55:24.289Z,18.99
2023-04-23T11:57:52.537Z,18.96
2023-04-23T12:00:22.267Z,18.88
2023-04-23T12:03:00.318Z,18.54
2023-04-23T12:05:36.741Z,18.48
2023-04-23T12:08:21.988Z,18.27
2023-04-23T12:10:53.587Z,18.07
2023-04-23T12:13:26.132Z,17.87
2023-04-23T12:15:58.328Z,17.51
2023-04-23T12:18:33.319Z,17.28
2023-04-23T12:21:11.056Z,17.00
2023-04-23T12:23:39.368Z,16.64
2023-04-23T12:26:11.728Z,16.51
2023-04-23T12:28:51.235Z,16.70
2023-04-23T12:31:23.122Z,17.20
2023-04-23T12:34:07.084Z,17.58
2023-04-23T12:36:35.218Z,17.83
2023-04-23T12:39:32.241Z,18.14
2023-04-23T12:42:06.458Z,18.50
2023-04-23T12:44:35.298Z,18.82
2023-04-23T12:47:04.778Z,19.10
2023-04-23T12:49:32.932Z,19.19
2023-04-23T12:52:02.169Z,19.04
2023-04-23T12:54:31.137Z,18.98
2023-04-23T12:56:59.438Z,18.81
2023-04-23T12:59:26.370Z,18.67
2023-04-23T13:01:53.273Z,18.38
2023-04-23T13:04:19.889Z,18.09
2023-04-23T13:06:46.531Z,18.10
2023-04-23T13:09:13.273Z,18.03
2023-04-23T13:11:40.866Z,17.83
2023-04-23T13:14:07.901Z,17.62
2023-04-23T13:16:35.313Z,17.39
2023-04-23T13:19:02.255Z,16.87
2023-04-23T13:21:28.708Z,15.49
2023-04-23T13:23:56.925Z,14.86
2023-04-23T13:26:23.803Z,14.56
2023-04-23T13:28:50.505Z,14.69
2023-04-23T13:31:16.914Z,15.05
2023-04-23T13:33:43.391Z,15.59
2023-04-23T13:36:10.939Z,16.11
2023-04-23T13:38:37.515Z,16.47
2023-04-23T13:41:04.453Z,16.73
2023-04-23T13:43:30.882Z,16.77
2023-04-23T13:45:57.481Z,16.73
2023-04-23T13:48:28.594Z,16.72
2023-04-23T13:50:55.814Z,16.96
2023-04-23T13:53:23.090Z,17.20
2023-04-23T13:55:49.847Z,17.39
2023-04-23T13:58:16.494Z,17.32
2023-04-23T14:00:43.795Z,16.91
2023-04-23T14:03:11.046Z,16.78
2023-04-23T14:05:38.291Z,16.74
2023-04-23T14:08:05.076Z,16.72
2023-04-23T14:10:31.515Z,16.71
2023-04-23T14:12:57.927Z,16.87
2023-04-23T14:15:24.538Z,16.81
2023-04-23T14:17:51.004Z,16.65
2023-04-23T14:20:19.915Z,16.77
2023-04-23T14:22:51.326Z,16.66
2023-04-23T14:25:29.045Z,16.74
2023-04-23T14:27:56.986Z,16.60
2023-04-23T14:30:26.223Z,16.70
2023-04-23T14:32:54.890Z,16.85
2023-04-23T14:35:35.640Z,16.88
2023-04-23T14:38:08.222Z,16.91
2023-04-23T14:40:34.800Z,16.98
2023-04-23T14:43:14.494Z,17.05
2023-04-23T14:45:41.810Z,16.97
2023-04-23T14:48:08.283Z,17.05
2023-04-23T14:50:34.745Z,17.04
2023-04-23T14:53:04.076Z,16.96
2023-04-23T14:55:30.810Z,16.94
2023-04-23T14:57:57.328Z,17.06
2023-04-23T15:00:23.760Z,17.24
2023-04-23T15:02:50.669Z,17.49
2023-04-23T15:05:17.175Z,17.58
2023-04-23T15:07:43.660Z,17.84
2023-04-23T15:10:11.557Z,18.20
2023-04-23T15:12:41.051Z,18.20
2023-04-23T15:15:48.342Z,18.26
2023-04-23T15:18:15.705Z,18.25
2023-04-23T15:20:43.829Z,18.08
2023-04-23T15:23:10.966Z,18.08
2023-04-23T15:25:39.091Z,17.96
2023-04-23T15:28:06.991Z,18.30
2023-04-23T15:30:33.397Z,18.17
2023-04-23T15:33:00.062Z,18.18
2023-04-23T15:35:28.537Z,18.31
2023-04-23T15:37:55.028Z,18.37
2023-04-23T15:40:21.574Z,17.84
2023-04-23T15:42:49.819Z,17.76
2023-04-23T15:45:16.877Z,17.43
2023-04-23T15:47:43.378Z,17.33
2023-04-23T15:50:10.663Z,17.04
2023-04-23T15:52:37.514Z,16.93
2023-04-23T15:55:04.784Z,16.86
2023-04-23T15:57:31.758Z,16.81
2023-04-23T15:59:58.267Z,17.00
2023-04-23T16:02:24.760Z,16.91
2023-04-23T16:04:51.469Z,16.91
2023-04-23T16:07:18.247Z,16.97
2023-04-23T16:09:44.707Z,17.08
2023-04-23T16:12:11.394Z,16.96
2023-04-23T16:14:38.010Z,17.04
2023-04-23T16:17:04.502Z,17.06
2023-04-23T16:19:31.115Z,17.03
2023-04-23T16:21:57.636Z,16.95
2023-04-23T16:24:24.532Z,16.99
2023-04-23T16:26:51.040Z,16.88
2023-04-23T16:29:22.830Z,16.80
2023-04-23T16:31:50.105Z,16.90
2023-04-23T16:34:16.935Z,16.80
2023-04-23T16:36:43.438Z,16.79
2023-04-23T16:39:10.993Z,16.78
2023-04-23T16:41:37.408Z,16.81
2023-04-23T16:44:03.866Z,16.76
2023-04-23T16:46:31.672Z,16.89
2023-04-23T16:48:58.505Z,16.69
2023-04-23T16:51:25.187Z,16.74
2023-04-23T16:53:51.589Z,16.66
2023-04-23T16:56:18.402Z,16.80
2023-04-23T16:58:44.790Z,16.67
2023-04-23T17:01:11.269Z,16.62
2023-04-23T17:03:39.067Z,16.41
2023-04-23T17:06:29.460Z,16.33
2023-04-23T17:09:00.359Z,16.38
2023-04-23T17:11:29.730Z,16.23
2023-04-23T17:13:57.261Z,16.18
2023-04-23T17:16:27.582Z,16.22
2023-04-23T17:18:55.476Z,16.09
2023-04-23T17:21:22.662Z,16.21
2023-04-23T17:23:49.196Z,16.06
2023-04-23T17:26:15.650Z,15.98
2023-04-23T17:28:42.231Z,16.11
2023-04-23T17:31:09.001Z,15.97
2023-04-23T17:33:35.890Z,15.97
2023-04-23T17:36:02.526Z,16.01
2023-04-23T17:38:29.574Z,15.99
2023-04-23T17:40:56.255Z,15.93
2023-04-23T17:43:22.732Z,15.88
2023-04-23T17:45:49.164Z,15.88
2023-04-23T17:48:15.881Z,15.79
2023-04-23T17:50:43.590Z,15.75
2023-04-23T17:53:10.497Z,15.70
2023-04-23T17:55:36.909Z,15.69
2023-04-23T17:58:06.407Z,15.67
2023-04-23T18:00:37.425Z,15.62
2023-04-23T18:03:04.407Z,15.60
2023-04-23T18:05:31.227Z,15.49
2023-04-23T18:07:58.960Z,15.50
2023-04-23T18:10:25.722Z,15.41
2023-04-23T18:12:52.381Z,15.50
2023-04-23T18:15:18.893Z,15.44
2023-04-23T18:17:45.886Z,15.34
2023-04-23T18:20:13.358Z,15.16
2023-04-23T18:22:41.464Z,15.19
2023-04-23T18:25:12.716Z,15.09
2023-04-23T18:27:39.404Z,15.04
2023-04-23T18:30:08.093Z,15.00
2023-04-23T18:32:46.990Z,15.00
2023-04-23T18:35:13.858Z,14.89
2023-04-23T18:37:48.766Z,15.00
2023-04-23T18:40:15.225Z,14.93
2023-04-23T18:42:41.668Z,14.93
2023-04-23T18:45:08.577Z,14.84
2023-04-23T18:47:49.862Z,14.86
2023-04-23T18:50:38.406Z,14.83
2023-04-23T18:53:05.088Z,14.67
2023-04-23T18:55:31.662Z,14.65
2023-04-23T18:57:58.687Z,14.75
2023-04-23T19:00:25.714Z,14.73
2023-04-23T19:02:52.426Z,14.66
2023-04-23T19:05:19.034Z,14.68
2023-04-23T19:07:45.747Z,14.67
2023-04-23T19:10:12.924Z,14.76
2023-04-23T19:12:39.328Z,14.65
2023-04-23T19:15:06.505Z,14.55
2023-04-23T19:17:33.022Z,14.58
2023-04-23T19:19:59.789Z,14.52
2023-04-23T19:22:26.383Z,14.52
2023-04-23T19:24:53.107Z,14.51
2023-04-23T19:27:19.975Z,14.44
2023-04-23T19:29:48.299Z,14.24
2023-04-23T19:32:14.747Z,14.22
2023-04-23T19:34:41.274Z,14.19
2023-04-23T19:37:07.701Z,14.18
2023-04-23T19:39:34.206Z,14.22
2023-04-23T19:42:02.480Z,14.09
2023-04-23T19:44:28.978Z,14.03
2023-04-23T19:46:56.530Z,13.93
2023-04-23T19:49:23.155Z,13.90
2023-04-23T19:51:53.390Z,13.81
2023-04-23T19:54:19.928Z,13.78
2023-04-23T19:56:46.673Z,13.75
2023-04-23T19:59:20.770Z,13.78
2023-04-23T20:01:47.870Z,13.80
2023-04-23T20:04:14.553Z,13.71
2023-04-23T20:06:41.524Z,13.73
2023-04-23T20:09:08.254Z,13.73
2023-04-23T20:11:35.401Z,13.78
2023-04-23T20:14:02.222Z,13.79
2023-04-23T20:16:28.895Z,13.81
2023-04-23T20:18:58.350Z,13.79
2023-04-23T20:21:24.903Z,13.73
2023-04-23T20:23:51.390Z,13.69
2023-04-23T20:26:18.996Z,13.69
2023-04-23T20:28:47.486Z,13.80
2023-04-23T20:31:14.764Z,13.69
2023-04-23T20:33:41.251Z,13.67
2023-04-23T20:36:11.520Z,13.63
2023-04-23T20:38:38.898Z,13.56
2023-04-23T20:41:05.971Z,13.57
2023-04-23T20:43:34.325Z,13.57
2023-04-23T20:46:00.892Z,13.55
2023-04-23T20:48:30.577Z,13.56
2023-04-23T20:50:57.678Z,13.52
2023-04-23T20:53:24.583Z,13.51
2023-04-23T20:55:51.195Z,13.50
2023-04-23T20:58:17.813Z,13.55
2023-04-23T21:00:44.513Z,13.44
2023-04-23T21:03:11.718Z,13.11
2023-04-23T21:05:40.292Z,12.90
2023-04-23T21:08:07.484Z,12.68
2023-04-23T21:10:33.925Z,12.48
2023-04-23T21:13:00.466Z,12.49
2023-04-23T21:15:29.624Z,12.34
2023-04-23T21:17:56.078Z,12.26
2023-04-23T21:20:22.846Z,12.41
2023-04-23T21:22:49.251Z,12.44
2023-04-23T21:25:15.852Z,12.52
2023-04-23T21:27:46.609Z,12.51
2023-04-23T21:30:56.544Z,12.39
2023-04-23T21:33:25.158Z,12.42
2023-04-23T21:35:53.626Z,12.39
2023-04-23T21:38:21.241Z,12.44
2023-04-23T21:40:47.930Z,12.50
2023-04-23T21:43:14.816Z,12.53
2023-04-23T21:45:41.325Z,12.53
2023-04-23T21:48:07.969Z,12.45
2023-04-23T21:50:34.728Z,12.46
2023-04-23T21:53:03.875Z,12.48
2023-04-23T21:55:34.006Z,12.49
2023-04-23T21:58:13.763Z,12.50
2023-04-23T22:00:44.498Z,12.45
2023-04-23T22:03:13.403Z,12.45
2023-04-23T22:05:49.230Z,12.45
2023-04-23T22:08:16.497Z,12.48
2023-04-23T22:10:43.237Z,12.46
2023-04-23T22:13:15.011Z,12.43
2023-04-23T22:15:42.163Z,12.39
2023-04-23T22:18:08.910Z,12.41
2023-04-23T22:20:37.463Z,12.37
2023-04-23T22:23:03.910Z,12.26
2023-04-23T22:25:30.343Z,12.22
2023-04-23T22:27:56.798Z,12.20
2023-04-23T22:30:23.443Z,12.24
2023-04-23T22:32:50.179Z,12.18
2023-04-23T22:35:16.869Z,12.18
2023-04-23T22:37:43.314Z,12.14
2023-04-23T22:40:10.320Z,12.12
2023-04-23T22:42:37.338Z,12.15
2023-04-23T22:45:03.953Z,12.12
2023-04-23T22:47:30.659Z,12.10
2023-04-23T22:49:57.105Z,12.11
2023-04-23T22:52:23.607Z,12.11
2023-04-23T22:54:50.241Z,12.17
2023-04-23T22:57:16.652Z,12.07
2023-04-23T22:59:43.561Z,12.07
2023-04-23T23:02:10.176Z,12.08
2023-04-23T23:04:38.845Z,12.13
2023-04-23T23:07:06.357Z,12.13
2023-04-23T23:09:32.890Z,12.17
2023-04-23T23:12:03.534Z,12.09
2023-04-23T23:14:31.719Z,12.12
2023-04-23T23:16:58.249Z,12.17
2023-04-23T23:19:26.959Z,12.19
2023-04-23T23:21:53.767Z,12.24
2023-04-23T23:24:20.525Z,12.21
2023-04-23T23:26:46.929Z,12.20
2023-04-23T23:29:13.577Z,12.19
2023-04-23T23:31:40.306Z,12.15
2023-04-23T23:34:06.805Z,12.16
2023-04-23T23:36:34.054Z,12.21
2023-04-23T23:39:01.042Z,12.27
2023-04-23T23:41:27.657Z,12.18
2023-04-23T23:43:54.851Z,12.22
2023-04-23T23:46:21.600Z,12.27
2023-04-23T23:48:48.278Z,12.37
2023-04-23T23:51:14.777Z,12.31
2023-04-23T23:53:41.207Z,12.18
2023-04-23T23:56:07.553Z,12.11
2023-04-23T23:58:33.953Z,12.08
